LFPM 030600Z AUTO 30005KT 9000 -RA FEW023/// BKN042/// BKN048/// ///TCU 05/05 Q0999

Les avions qui composent notre flotte

Avion Robin DR400-120

Avion école

F-GAHP
   * tarif promotionnel appliqué pendant la formation des élèves non brevetés


F-GAHP Planche